sensor_id;sensor_type;location;lat;lon;timestamp;P1;durP1;ratioP1;P2;durP2;ratioP2
9767;SDS011;4923;52.520;13.494;2023-09-30T00:01:49;10.43;;;1.10;;
9767;SDS011;4923;52.520;13.494;2023-09-30T00:04:38;2.97;;;1.20;;
9767;SDS011;4923;52.520;13.494;2023-09-30T00:07:25;0.83;;;0.83;;
9767;SDS011;4923;52.520;13.494;2023-09-30T00:10:12;6.80;;;1.37;;
9767;SDS011;4923;52.520;13.494;2023-09-30T00:13:00;2.03;;;1.10;;
9767;SDS011;4923;52.520;13.494;2023-09-30T00:15:46;1.00;;;1.00;;
9767;SDS011;4923;52.520;13.494;2023-09-30T00:18:33;3.17;;;0.97;;
9767;SDS011;4923;52.520;13.494;2023-09-30T00:21:21;4.90;;;0.93;;
9767;SDS011;4923;52.520;13.494;2023-09-30T00:24:08;3.27;;;1.40;;
9767;SDS011;4923;52.520;13.494;2023-09-30T00:26:55;2.00;;;0.90;;
9767;SDS011;4923;52.520;13.494;2023-09-30T00:29:42;4.37;;;1.53;;
9767;SDS011;4923;52.520;13.494;2023-09-30T00:32:29;2.80;;;1.00;;
9767;SDS011;4923;52.520;13.494;2023-09-30T00:35:16;2.43;;;1.23;;
9767;SDS011;4923;52.520;13.494;2023-09-30T00:38:04;4.53;;;0.97;;
9767;SDS011;4923;52.520;13.494;2023-09-30T00:40:51;7.40;;;2.33;;
9767;SDS011;4923;52.520;13.494;2023-09-30T00:43:38;2.67;;;0.90;;
9767;SDS011;4923;52.520;13.494;2023-09-30T00:46:26;7.03;;;1.40;;
9767;SDS011;4923;52.520;13.494;2023-09-30T00:49:15;5.93;;;1.60;;
9767;SDS011;4923;52.520;13.494;2023-09-30T00:52:03;8.43;;;1.60;;
9767;SDS011;4923;52.520;13.494;2023-09-30T00:54:52;7.37;;;1.40;;
9767;SDS011;4923;52.520;13.494;2023-09-30T00:57:40;11.97;;;2.00;;
9767;SDS011;4923;52.520;13.494;2023-09-30T01:00:27;5.50;;;1.73;;
9767;SDS011;4923;52.520;13.494;2023-09-30T01:03:14;9.10;;;1.33;;
9767;SDS011;4923;52.520;13.494;2023-09-30T01:06:01;5.63;;;2.50;;
9767;SDS011;4923;52.520;13.494;2023-09-30T01:08:48;6.87;;;1.90;;
9767;SDS011;4923;52.520;13.494;2023-09-30T01:11:36;8.87;;;2.30;;
9767;SDS011;4923;52.520;13.494;2023-09-30T01:14:23;6.87;;;2.13;;
9767;SDS011;4923;52.520;13.494;2023-09-30T01:17:10;8.50;;;2.00;;
9767;SDS011;4923;52.520;13.494;2023-09-30T01:19:58;5.80;;;2.17;;
9767;SDS011;4923;52.520;13.494;2023-09-30T01:22:47;20.30;;;1.90;;
9767;SDS011;4923;52.520;13.494;2023-09-30T01:25:34;8.30;;;3.10;;
9767;SDS011;4923;52.520;13.494;2023-09-30T01:28:23;9.17;;;1.80;;
9767;SDS011;4923;52.520;13.494;2023-09-30T01:31:10;6.00;;;1.57;;
9767;SDS011;4923;52.520;13.494;2023-09-30T01:33:57;5.43;;;2.10;;
9767;SDS011;4923;52.520;13.494;2023-09-30T01:36:45;15.17;;;2.80;;
9767;SDS011;4923;52.520;13.494;2023-09-30T01:39:33;10.03;;;1.83;;
9767;SDS011;4923;52.520;13.494;2023-09-30T01:42:20;10.87;;;2.37;;
9767;SDS011;4923;52.520;13.494;2023-09-30T01:45:07;6.10;;;1.93;;
9767;SDS011;4923;52.520;13.494;2023-09-30T01:47:55;13.17;;;1.90;;
9767;SDS011;4923;52.520;13.494;2023-09-30T01:50:42;8.57;;;2.73;;
9767;SDS011;4923;52.520;13.494;2023-09-30T01:53:29;9.67;;;2.27;;
9767;SDS011;4923;52.520;13.494;2023-09-30T01:56:17;2.97;;;1.43;;
9767;SDS011;4923;52.520;13.494;2023-09-30T01:59:04;5.13;;;1.60;;
9767;SDS011;4923;52.520;13.494;2023-09-30T02:01:51;11.87;;;2.57;;
9767;SDS011;4923;52.520;13.494;2023-09-30T02:04:37;10.07;;;2.00;;
9767;SDS011;4923;52.520;13.494;2023-09-30T02:07:25;10.13;;;2.23;;
9767;SDS011;4923;52.520;13.494;2023-09-30T02:10:12;8.30;;;2.20;;
9767;SDS011;4923;52.520;13.494;2023-09-30T02:13:00;12.10;;;2.10;;
9767;SDS011;4923;52.520;13.494;2023-09-30T02:15:47;6.10;;;1.70;;
9767;SDS011;4923;52.520;13.494;2023-09-30T02:18:34;11.27;;;2.70;;
9767;SDS011;4923;52.520;13.494;2023-09-30T02:21:21;11.43;;;1.83;;
9767;SDS011;4923;52.520;13.494;2023-09-30T02:24:08;7.33;;;1.80;;
9767;SDS011;4923;52.520;13.494;2023-09-30T02:26:55;8.32;;;1.92;;
9767;SDS011;4923;52.520;13.494;2023-09-30T02:29:43;15.10;;;2.53;;
9767;SDS011;4923;52.520;13.494;2023-09-30T02:32:30;5.13;;;1.97;;
9767;SDS011;4923;52.520;13.494;2023-09-30T02:35:18;12.90;;;1.90;;
9767;SDS011;4923;52.520;13.494;2023-09-30T02:38:05;7.73;;;2.47;;
9767;SDS011;4923;52.520;13.494;2023-09-30T02:40:54;18.73;;;2.90;;
9767;SDS011;4923;52.520;13.494;2023-09-30T02:43:41;13.43;;;2.50;;
9767;SDS011;4923;52.520;13.494;2023-09-30T02:46:29;8.63;;;2.45;;
9767;SDS011;4923;52.520;13.494;2023-09-30T02:49:16;10.50;;;2.07;;
9767;SDS011;4923;52.520;13.494;2023-09-30T02:52:04;10.90;;;2.15;;
9767;SDS011;4923;52.520;13.494;2023-09-30T02:54:51;14.20;;;2.10;;
9767;SDS011;4923;52.520;13.494;2023-09-30T02:57:38;5.97;;;2.17;;
9767;SDS011;4923;52.520;13.494;2023-09-30T03:00:25;8.57;;;2.00;;
9767;SDS011;4923;52.520;13.494;2023-09-30T03:03:18;7.77;;;2.13;;
9767;SDS011;4923;52.520;13.494;2023-09-30T03:06:05;8.35;;;3.03;;
9767;SDS011;4923;52.520;13.494;2023-09-30T03:08:52;10.93;;;2.47;;
9767;SDS011;4923;52.520;13.494;2023-09-30T03:11:39;28.65;;;4.85;;
9767;SDS011;4923;52.520;13.494;2023-09-30T03:14:27;17.13;;;2.60;;
9767;SDS011;4923;52.520;13.494;2023-09-30T03:17:16;4.00;;;1.90;;
9767;SDS011;4923;52.520;13.494;2023-09-30T03:20:06;9.95;;;2.63;;
9767;SDS011;4923;52.520;13.494;2023-09-30T03:22:56;17.40;;;2.80;;
9767;SDS011;4923;52.520;13.494;2023-09-30T03:25:43;16.70;;;2.92;;
9767;SDS011;4923;52.520;13.494;2023-09-30T03:28:30;7.55;;;2.35;;
9767;SDS011;4923;52.520;13.494;2023-09-30T03:31:19;14.77;;;2.47;;
9767;SDS011;4923;52.520;13.494;2023-09-30T03:34:06;15.70;;;2.40;;
9767;SDS011;4923;52.520;13.494;2023-09-30T03:36:54;18.45;;;3.42;;
9767;SDS011;4923;52.520;13.494;2023-09-30T03:39:44;10.73;;;2.55;;
9767;SDS011;4923;52.520;13.494;2023-09-30T03:42:34;18.40;;;3.10;;
9767;SDS011;4923;52.520;13.494;2023-09-30T03:45:22;10.40;;;2.30;;
9767;SDS011;4923;52.520;13.494;2023-09-30T03:48:09;13.27;;;2.92;;
9767;SDS011;4923;52.520;13.494;2023-09-30T03:50:56;22.20;;;3.50;;
9767;SDS011;4923;52.520;13.494;2023-09-30T03:53:44;18.10;;;3.20;;
9767;SDS011;4923;52.520;13.494;2023-09-30T03:56:31;6.90;;;3.28;;
9767;SDS011;4923;52.520;13.494;2023-09-30T03:59:18;6.00;;;2.60;;
9767;SDS011;4923;52.520;13.494;2023-09-30T04:02:05;17.63;;;3.60;;
9767;SDS011;4923;52.520;13.494;2023-09-30T04:04:53;14.40;;;3.05;;
9767;SDS011;4923;52.520;13.494;2023-09-30T04:07:41;27.40;;;3.00;;
9767;SDS011;4923;52.520;13.494;2023-09-30T04:10:29;17.88;;;2.75;;
9767;SDS011;4923;52.520;13.494;2023-09-30T04:13:16;12.70;;;2.58;;
9767;SDS011;4923;52.520;13.494;2023-09-30T04:16:06;13.65;;;3.42;;
9767;SDS011;4923;52.520;13.494;2023-09-30T04:18:53;13.60;;;3.40;;
9767;SDS011;4923;52.520;13.494;2023-09-30T04:21:40;6.30;;;2.47;;
9767;SDS011;4923;52.520;13.494;2023-09-30T04:24:28;8.87;;;2.67;;
9767;SDS011;4923;52.520;13.494;2023-09-30T04:27:16;13.60;;;2.95;;
9767;SDS011;4923;52.520;13.494;2023-09-30T04:30:03;10.20;;;2.95;;
9767;SDS011;4923;52.520;13.494;2023-09-30T04:32:54;20.45;;;3.03;;
9767;SDS011;4923;52.520;13.494;2023-09-30T04:35:42;15.25;;;3.65;;
9767;SDS011;4923;52.520;13.494;2023-09-30T04:38:29;13.95;;;2.97;;
9767;SDS011;4923;52.520;13.494;2023-09-30T04:41:16;12.25;;;3.00;;
9767;SDS011;4923;52.520;13.494;2023-09-30T04:44:05;15.63;;;3.35;;
9767;SDS011;4923;52.520;13.494;2023-09-30T04:46:55;13.23;;;2.97;;
9767;SDS011;4923;52.520;13.494;2023-09-30T04:49:42;13.15;;;2.80;;
9767;SDS011;4923;52.520;13.494;2023-09-30T04:52:29;17.17;;;3.28;;
9767;SDS011;4923;52.520;13.494;2023-09-30T04:55:16;25.67;;;3.08;;
9767;SDS011;4923;52.520;13.494;2023-09-30T04:58:04;15.13;;;2.70;;
9767;SDS011;4923;52.520;13.494;2023-09-30T05:00:52;8.30;;;2.30;;
9767;SDS011;4923;52.520;13.494;2023-09-30T05:03:39;17.30;;;2.95;;
9767;SDS011;4923;52.520;13.494;2023-09-30T05:06:26;15.20;;;4.28;;
9767;SDS011;4923;52.520;13.494;2023-09-30T05:09:13;14.13;;;2.67;;
9767;SDS011;4923;52.520;13.494;2023-09-30T05:12:00;14.10;;;2.55;;
9767;SDS011;4923;52.520;13.494;2023-09-30T05:14:47;21.80;;;3.53;;
9767;SDS011;4923;52.520;13.494;2023-09-30T05:17:35;11.10;;;3.80;;
9767;SDS011;4923;52.520;13.494;2023-09-30T05:20:22;26.10;;;3.78;;
9767;SDS011;4923;52.520;13.494;2023-09-30T05:23:09;16.55;;;3.28;;
9767;SDS011;4923;52.520;13.494;2023-09-30T05:25:58;15.93;;;3.25;;
9767;SDS011;4923;52.520;13.494;2023-09-30T05:28:45;8.85;;;2.45;;
9767;SDS011;4923;52.520;13.494;2023-09-30T05:31:32;20.73;;;3.47;;
9767;SDS011;4923;52.520;13.494;2023-09-30T05:34:20;16.15;;;2.97;;
9767;SDS011;4923;52.520;13.494;2023-09-30T05:37:07;15.90;;;3.40;;
9767;SDS011;4923;52.520;13.494;2023-09-30T05:39:54;16.80;;;2.50;;
9767;SDS011;4923;52.520;13.494;2023-09-30T05:42:41;10.65;;;3.33;;
9767;SDS011;4923;52.520;13.494;2023-09-30T05:45:30;12.18;;;2.90;;
9767;SDS011;4923;52.520;13.494;2023-09-30T05:48:19;10.32;;;3.05;;
9767;SDS011;4923;52.520;13.494;2023-09-30T05:51:07;17.50;;;3.65;;
9767;SDS011;4923;52.520;13.494;2023-09-30T05:53:54;14.73;;;2.90;;
9767;SDS011;4923;52.520;13.494;2023-09-30T05:56:41;8.13;;;2.45;;
9767;SDS011;4923;52.520;13.494;2023-09-30T05:59:28;9.68;;;3.20;;
9767;SDS011;4923;52.520;13.494;2023-09-30T06:02:15;19.75;;;2.90;;
9767;SDS011;4923;52.520;13.494;2023-09-30T06:05:02;16.73;;;2.83;;
9767;SDS011;4923;52.520;13.494;2023-09-30T06:07:51;17.50;;;2.90;;
9767;SDS011;4923;52.520;13.494;2023-09-30T06:10:39;24.07;;;3.70;;
9767;SDS011;4923;52.520;13.494;2023-09-30T06:13:28;11.07;;;2.97;;
9767;SDS011;4923;52.520;13.494;2023-09-30T06:16:16;19.03;;;2.93;;
9767;SDS011;4923;52.520;13.494;2023-09-30T06:19:03;10.20;;;2.47;;
9767;SDS011;4923;52.520;13.494;2023-09-30T06:21:51;15.60;;;2.70;;
9767;SDS011;4923;52.520;13.494;2023-09-30T06:24:39;10.38;;;2.45;;
9767;SDS011;4923;52.520;13.494;2023-09-30T06:27:27;8.90;;;2.90;;
9767;SDS011;4923;52.520;13.494;2023-09-30T06:30:14;10.30;;;2.27;;
9767;SDS011;4923;52.520;13.494;2023-09-30T06:33:02;11.83;;;2.40;;
9767;SDS011;4923;52.520;13.494;2023-09-30T06:35:50;20.13;;;2.70;;
9767;SDS011;4923;52.520;13.494;2023-09-30T06:38:37;11.90;;;2.57;;
9767;SDS011;4923;52.520;13.494;2023-09-30T06:41:25;13.10;;;2.50;;
9767;SDS011;4923;52.520;13.494;2023-09-30T06:44:12;14.00;;;3.10;;
9767;SDS011;4923;52.520;13.494;2023-09-30T06:46:59;6.47;;;2.20;;
9767;SDS011;4923;52.520;13.494;2023-09-30T06:49:46;13.03;;;2.60;;
9767;SDS011;4923;52.520;13.494;2023-09-30T06:52:32;6.47;;;2.33;;
9767;SDS011;4923;52.520;13.494;2023-09-30T06:55:20;13.10;;;2.90;;
9767;SDS011;4923;52.520;13.494;2023-09-30T06:58:08;14.53;;;2.73;;
9767;SDS011;4923;52.520;13.494;2023-09-30T07:00:56;18.00;;;2.80;;
9767;SDS011;4923;52.520;13.494;2023-09-30T07:03:42;15.70;;;2.20;;
9767;SDS011;4923;52.520;13.494;2023-09-30T07:06:30;10.33;;;2.80;;
9767;SDS011;4923;52.520;13.494;2023-09-30T07:09:17;12.10;;;2.30;;
9767;SDS011;4923;52.520;13.494;2023-09-30T07:12:05;10.20;;;2.93;;
9767;SDS011;4923;52.520;13.494;2023-09-30T07:14:54;13.80;;;2.23;;
9767;SDS011;4923;52.520;13.494;2023-09-30T07:17:40;10.63;;;2.47;;
9767;SDS011;4923;52.520;13.494;2023-09-30T07:20:28;6.93;;;2.37;;
9767;SDS011;4923;52.520;13.494;2023-09-30T07:23:19;10.37;;;2.33;;
9767;SDS011;4923;52.520;13.494;2023-09-30T07:26:06;16.23;;;2.40;;
9767;SDS011;4923;52.520;13.494;2023-09-30T07:28:53;9.17;;;2.07;;
9767;SDS011;4923;52.520;13.494;2023-09-30T07:31:43;9.93;;;2.23;;
9767;SDS011;4923;52.520;13.494;2023-09-30T07:34:30;2.70;;;1.40;;
9767;SDS011;4923;52.520;13.494;2023-09-30T07:37:17;7.33;;;2.10;;
9767;SDS011;4923;52.520;13.494;2023-09-30T07:40:06;11.53;;;2.47;;
9767;SDS011;4923;52.520;13.494;2023-09-30T07:42:53;16.50;;;2.80;;
9767;SDS011;4923;52.520;13.494;2023-09-30T07:45:40;10.77;;;2.50;;
9767;SDS011;4923;52.520;13.494;2023-09-30T07:48:30;5.10;;;1.77;;
9767;SDS011;4923;52.520;13.494;2023-09-30T07:51:18;9.40;;;2.97;;
9767;SDS011;4923;52.520;13.494;2023-09-30T07:54:05;12.27;;;2.30;;
9767;SDS011;4923;52.520;13.494;2023-09-30T07:56:52;6.80;;;2.30;;
9767;SDS011;4923;52.520;13.494;2023-09-30T07:59:39;7.00;;;2.37;;
9767;SDS011;4923;52.520;13.494;2023-09-30T08:02:26;7.40;;;2.33;;
9767;SDS011;4923;52.520;13.494;2023-09-30T08:05:19;8.33;;;2.00;;
9767;SDS011;4923;52.520;13.494;2023-09-30T08:08:06;9.03;;;2.43;;
9767;SDS011;4923;52.520;13.494;2023-09-30T08:10:53;11.00;;;2.47;;
9767;SDS011;4923;52.520;13.494;2023-09-30T08:13:41;22.20;;;2.50;;
9767;SDS011;4923;52.520;13.494;2023-09-30T08:16:28;9.17;;;2.60;;
9767;SDS011;4923;52.520;13.494;2023-09-30T08:19:15;20.43;;;2.97;;
9767;SDS011;4923;52.520;13.494;2023-09-30T08:22:03;7.90;;;2.93;;
9767;SDS011;4923;52.520;13.494;2023-09-30T08:24:52;8.50;;;2.70;;
9767;SDS011;4923;52.520;13.494;2023-09-30T08:27:38;12.23;;;2.13;;
9767;SDS011;4923;52.520;13.494;2023-09-30T08:30:25;16.50;;;3.00;;
9767;SDS011;4923;52.520;13.494;2023-09-30T08:33:12;12.80;;;2.40;;
9767;SDS011;4923;52.520;13.494;2023-09-30T08:36:01;9.60;;;2.00;;
9767;SDS011;4923;52.520;13.494;2023-09-30T08:38:53;10.03;;;2.23;;
9767;SDS011;4923;52.520;13.494;2023-09-30T08:41:40;11.37;;;2.13;;
9767;SDS011;4923;52.520;13.494;2023-09-30T08:44:29;13.70;;;2.03;;
9767;SDS011;4923;52.520;13.494;2023-09-30T08:47:16;10.90;;;2.90;;
9767;SDS011;4923;52.520;13.494;2023-09-30T08:50:03;14.40;;;2.20;;
9767;SDS011;4923;52.520;13.494;2023-09-30T08:52:55;6.70;;;2.03;;
9767;SDS011;4923;52.520;13.494;2023-09-30T08:55:43;10.73;;;1.90;;
9767;SDS011;4923;52.520;13.494;2023-09-30T08:58:31;9.73;;;2.57;;
9767;SDS011;4923;52.520;13.494;2023-09-30T09:01:19;10.77;;;1.90;;
9767;SDS011;4923;52.520;13.494;2023-09-30T09:04:06;14.47;;;2.27;;
9767;SDS011;4923;52.520;13.494;2023-09-30T09:06:53;9.30;;;2.47;;
9767;SDS011;4923;52.520;13.494;2023-09-30T09:09:40;13.53;;;2.53;;
9767;SDS011;4923;52.520;13.494;2023-09-30T09:12:39;10.70;;;2.20;;
9767;SDS011;4923;52.520;13.494;2023-09-30T09:15:27;10.00;;;2.53;;
9767;SDS011;4923;52.520;13.494;2023-09-30T09:18:17;10.50;;;2.20;;
9767;SDS011;4923;52.520;13.494;2023-09-30T09:21:19;10.23;;;2.43;;
9767;SDS011;4923;52.520;13.494;2023-09-30T09:24:08;10.60;;;1.93;;
9767;SDS011;4923;52.520;13.494;2023-09-30T09:27:03;9.63;;;2.23;;
9767;SDS011;4923;52.520;13.494;2023-09-30T09:29:53;10.83;;;1.87;;
9767;SDS011;4923;52.520;13.494;2023-09-30T09:32:51;7.50;;;2.23;;
9767;SDS011;4923;52.520;13.494;2023-09-30T09:35:39;8.27;;;1.67;;
9767;SDS011;4923;52.520;13.494;2023-09-30T09:38:27;10.03;;;2.80;;
9767;SDS011;4923;52.520;13.494;2023-09-30T09:41:30;8.13;;;1.37;;
9767;SDS011;4923;52.520;13.494;2023-09-30T09:44:17;20.23;;;2.40;;
9767;SDS011;4923;52.520;13.494;2023-09-30T09:47:07;12.47;;;1.93;;
9767;SDS011;4923;52.520;13.494;2023-09-30T09:49:56;6.37;;;1.53;;
9767;SDS011;4923;52.520;13.494;2023-09-30T09:52:44;8.10;;;2.00;;
9767;SDS011;4923;52.520;13.494;2023-09-30T09:55:33;9.20;;;1.73;;
9767;SDS011;4923;52.520;13.494;2023-09-30T09:58:23;12.53;;;1.90;;
9767;SDS011;4923;52.520;13.494;2023-09-30T10:01:12;7.70;;;1.87;;
9767;SDS011;4923;52.520;13.494;2023-09-30T10:04:00;5.60;;;1.60;;
9767;SDS011;4923;52.520;13.494;2023-09-30T10:06:47;5.57;;;1.57;;
9767;SDS011;4923;52.520;13.494;2023-09-30T10:09:41;10.23;;;1.63;;
9767;SDS011;4923;52.520;13.494;2023-09-30T10:12:35;6.73;;;1.63;;
9767;SDS011;4923;52.520;13.494;2023-09-30T10:15:34;2.97;;;1.13;;
9767;SDS011;4923;52.520;13.494;2023-09-30T10:18:22;12.10;;;1.87;;
9767;SDS011;4923;52.520;13.494;2023-09-30T10:21:10;3.33;;;1.67;;
9767;SDS011;4923;52.520;13.494;2023-09-30T10:27:27;9.83;;;1.60;;
9767;SDS011;4923;52.520;13.494;2023-09-30T10:30:18;8.00;;;1.60;;
9767;SDS011;4923;52.520;13.494;2023-09-30T10:33:08;9.20;;;2.10;;
9767;SDS011;4923;52.520;13.494;2023-09-30T10:35:57;8.83;;;1.60;;
9767;SDS011;4923;52.520;13.494;2023-09-30T10:38:47;4.53;;;1.40;;
9767;SDS011;4923;52.520;13.494;2023-09-30T10:41:50;9.80;;;1.27;;
9767;SDS011;4923;52.520;13.494;2023-09-30T10:44:37;4.23;;;1.60;;
9767;SDS011;4923;52.520;13.494;2023-09-30T10:47:36;4.20;;;1.40;;
9767;SDS011;4923;52.520;13.494;2023-09-30T10:50:48;9.77;;;1.60;;
9767;SDS011;4923;52.520;13.494;2023-09-30T10:53:40;3.77;;;1.20;;
9767;SDS011;4923;52.520;13.494;2023-09-30T10:56:32;6.60;;;1.57;;
9767;SDS011;4923;52.520;13.494;2023-09-30T10:59:19;7.73;;;1.17;;
9767;SDS011;4923;52.520;13.494;2023-09-30T11:02:17;7.60;;;2.10;;
9767;SDS011;4923;52.520;13.494;2023-09-30T11:05:09;7.63;;;1.87;;
9767;SDS011;4923;52.520;13.494;2023-09-30T11:07:56;9.87;;;1.80;;
9767;SDS011;4923;52.520;13.494;2023-09-30T11:10:49;4.23;;;2.80;;
9767;SDS011;4923;52.520;13.494;2023-09-30T11:13:37;3.73;;;1.30;;
9767;SDS011;4923;52.520;13.494;2023-09-30T11:16:24;4.00;;;1.70;;
9767;SDS011;4923;52.520;13.494;2023-09-30T11:19:11;10.57;;;1.77;;
9767;SDS011;4923;52.520;13.494;2023-09-30T11:21:58;5.73;;;1.53;;
9767;SDS011;4923;52.520;13.494;2023-09-30T11:24:45;5.33;;;1.63;;
9767;SDS011;4923;52.520;13.494;2023-09-30T11:27:32;7.37;;;1.50;;
9767;SDS011;4923;52.520;13.494;2023-09-30T11:30:20;4.47;;;1.40;;
9767;SDS011;4923;52.520;13.494;2023-09-30T11:33:07;7.63;;;1.30;;
9767;SDS011;4923;52.520;13.494;2023-09-30T11:35:57;12.73;;;1.83;;
9767;SDS011;4923;52.520;13.494;2023-09-30T11:38:46;4.10;;;1.37;;
9767;SDS011;4923;52.520;13.494;2023-09-30T11:41:35;5.13;;;1.10;;
9767;SDS011;4923;52.520;13.494;2023-09-30T11:44:23;3.67;;;1.20;;
9767;SDS011;4923;52.520;13.494;2023-09-30T11:47:13;9.80;;;1.63;;
9767;SDS011;4923;52.520;13.494;2023-09-30T11:50:00;6.40;;;1.70;;
9767;SDS011;4923;52.520;13.494;2023-09-30T11:52:47;9.37;;;1.63;;
9767;SDS011;4923;52.520;13.494;2023-09-30T11:55:34;12.13;;;1.80;;
9767;SDS011;4923;52.520;13.494;2023-09-30T11:58:22;7.63;;;1.90;;
9767;SDS011;4923;52.520;13.494;2023-09-30T12:01:09;4.27;;;1.13;;
9767;SDS011;4923;52.520;13.494;2023-09-30T12:04:00;16.07;;;1.73;;
9767;SDS011;4923;52.520;13.494;2023-09-30T12:06:47;10.47;;;1.70;;
9767;SDS011;4923;52.520;13.494;2023-09-30T12:09:34;8.57;;;1.50;;
9767;SDS011;4923;52.520;13.494;2023-09-30T12:12:22;4.40;;;1.10;;
9767;SDS011;4923;52.520;13.494;2023-09-30T12:15:09;7.53;;;1.40;;
9767;SDS011;4923;52.520;13.494;2023-09-30T12:17:57;8.97;;;1.73;;
9767;SDS011;4923;52.520;13.494;2023-09-30T12:20:45;6.27;;;1.10;;
9767;SDS011;4923;52.520;13.494;2023-09-30T12:23:32;7.80;;;1.50;;
9767;SDS011;4923;52.520;13.494;2023-09-30T12:26:18;5.07;;;1.10;;
9767;SDS011;4923;52.520;13.494;2023-09-30T12:29:06;5.00;;;1.43;;
9767;SDS011;4923;52.520;13.494;2023-09-30T12:31:54;3.80;;;1.20;;
9767;SDS011;4923;52.520;13.494;2023-09-30T12:34:41;4.93;;;2.20;;
9767;SDS011;4923;52.520;13.494;2023-09-30T12:37:30;7.77;;;1.40;;
9767;SDS011;4923;52.520;13.494;2023-09-30T12:40:18;5.80;;;1.27;;
9767;SDS011;4923;52.520;13.494;2023-09-30T12:43:04;14.23;;;2.00;;
9767;SDS011;4923;52.520;13.494;2023-09-30T12:45:52;4.67;;;1.20;;
9767;SDS011;4923;52.520;13.494;2023-09-30T12:48:39;11.07;;;1.20;;
9767;SDS011;4923;52.520;13.494;2023-09-30T12:51:26;6.97;;;1.60;;
9767;SDS011;4923;52.520;13.494;2023-09-30T12:54:14;5.07;;;1.47;;
9767;SDS011;4923;52.520;13.494;2023-09-30T12:57:03;8.67;;;1.60;;
9767;SDS011;4923;52.520;13.494;2023-09-30T12:59:52;5.27;;;1.37;;
9767;SDS011;4923;52.520;13.494;2023-09-30T13:02:39;4.07;;;1.40;;
9767;SDS011;4923;52.520;13.494;2023-09-30T13:05:26;6.73;;;1.23;;
9767;SDS011;4923;52.520;13.494;2023-09-30T13:08:14;2.13;;;1.20;;
9767;SDS011;4923;52.520;13.494;2023-09-30T13:11:02;3.27;;;1.13;;
9767;SDS011;4923;52.520;13.494;2023-09-30T13:13:49;4.70;;;1.37;;
9767;SDS011;4923;52.520;13.494;2023-09-30T13:16:36;2.33;;;1.13;;
9767;SDS011;4923;52.520;13.494;2023-09-30T13:19:23;6.30;;;1.67;;
9767;SDS011;4923;52.520;13.494;2023-09-30T13:22:10;3.00;;;0.80;;
9767;SDS011;4923;52.520;13.494;2023-09-30T13:25:00;2.63;;;1.03;;
9767;SDS011;4923;52.520;13.494;2023-09-30T13:27:48;9.27;;;1.23;;
9767;SDS011;4923;52.520;13.494;2023-09-30T13:30:35;6.50;;;0.97;;
9767;SDS011;4923;52.520;13.494;2023-09-30T13:33:22;7.17;;;1.50;;
9767;SDS011;4923;52.520;13.494;2023-09-30T13:36:09;4.30;;;0.90;;
9767;SDS011;4923;52.520;13.494;2023-09-30T13:38:55;5.23;;;1.07;;
9767;SDS011;4923;52.520;13.494;2023-09-30T13:41:42;1.43;;;0.83;;
9767;SDS011;4923;52.520;13.494;2023-09-30T13:44:33;1.50;;;0.83;;
9767;SDS011;4923;52.520;13.494;2023-09-30T13:47:21;3.87;;;1.00;;
9767;SDS011;4923;52.520;13.494;2023-09-30T13:50:08;3.87;;;1.27;;
9767;SDS011;4923;52.520;13.494;2023-09-30T13:52:55;4.83;;;1.33;;
9767;SDS011;4923;52.520;13.494;2023-09-30T13:55:42;1.80;;;0.97;;
9767;SDS011;4923;52.520;13.494;2023-09-30T13:58:30;2.30;;;0.83;;
9767;SDS011;4923;52.520;13.494;2023-09-30T14:01:18;1.13;;;0.60;;
9767;SDS011;4923;52.520;13.494;2023-09-30T14:04:06;6.73;;;1.10;;
9767;SDS011;4923;52.520;13.494;2023-09-30T14:06:52;2.97;;;1.13;;
9767;SDS011;4923;52.520;13.494;2023-09-30T14:09:39;2.73;;;0.70;;
9767;SDS011;4923;52.520;13.494;2023-09-30T14:12:26;3.10;;;0.80;;
9767;SDS011;4923;52.520;13.494;2023-09-30T14:15:13;4.67;;;0.87;;
9767;SDS011;4923;52.520;13.494;2023-09-30T14:18:02;4.00;;;1.17;;
9767;SDS011;4923;52.520;13.494;2023-09-30T14:20:49;1.53;;;0.90;;
9767;SDS011;4923;52.520;13.494;2023-09-30T14:23:36;7.90;;;0.97;;
9767;SDS011;4923;52.520;13.494;2023-09-30T14:26:23;5.73;;;1.00;;
9767;SDS011;4923;52.520;13.494;2023-09-30T14:29:10;5.73;;;0.90;;
9767;SDS011;4923;52.520;13.494;2023-09-30T14:31:58;5.70;;;1.20;;
9767;SDS011;4923;52.520;13.494;2023-09-30T14:34:47;2.10;;;1.07;;
9767;SDS011;4923;52.520;13.494;2023-09-30T14:37:33;5.60;;;1.27;;
9767;SDS011;4923;52.520;13.494;2023-09-30T14:40:20;5.60;;;0.87;;
9767;SDS011;4923;52.520;13.494;2023-09-30T14:43:07;2.60;;;0.87;;
9767;SDS011;4923;52.520;13.494;2023-09-30T14:45:55;1.33;;;0.57;;
9767;SDS011;4923;52.520;13.494;2023-09-30T14:48:42;1.70;;;0.77;;
9767;SDS011;4923;52.520;13.494;2023-09-30T14:51:30;2.67;;;0.97;;
9767;SDS011;4923;52.520;13.494;2023-09-30T14:54:17;1.63;;;1.00;;
9767;SDS011;4923;52.520;13.494;2023-09-30T14:57:04;6.57;;;1.00;;
9767;SDS011;4923;52.520;13.494;2023-09-30T14:59:50;4.70;;;1.07;;
9767;SDS011;4923;52.520;13.494;2023-09-30T15:02:37;6.50;;;0.97;;
9767;SDS011;4923;52.520;13.494;2023-09-30T15:05:25;6.03;;;1.60;;
9767;SDS011;4923;52.520;13.494;2023-09-30T15:08:13;7.10;;;1.10;;
9767;SDS011;4923;52.520;13.494;2023-09-30T15:11:01;4.27;;;1.13;;
9767;SDS011;4923;52.520;13.494;2023-09-30T15:13:48;3.07;;;0.90;;
9767;SDS011;4923;52.520;13.494;2023-09-30T15:16:36;2.30;;;0.80;;
9767;SDS011;4923;52.520;13.494;2023-09-30T15:19:23;3.30;;;0.90;;
9767;SDS011;4923;52.520;13.494;2023-09-30T15:22:10;1.90;;;1.03;;
9767;SDS011;4923;52.520;13.494;2023-09-30T15:24:58;6.70;;;1.00;;
9767;SDS011;4923;52.520;13.494;2023-09-30T15:27:45;8.60;;;1.20;;
9767;SDS011;4923;52.520;13.494;2023-09-30T15:30:32;3.00;;;1.00;;
9767;SDS011;4923;52.520;13.494;2023-09-30T15:33:19;3.47;;;1.10;;
9767;SDS011;4923;52.520;13.494;2023-09-30T15:36:09;1.57;;;1.13;;
9767;SDS011;4923;52.520;13.494;2023-09-30T15:38:56;3.13;;;0.90;;
9767;SDS011;4923;52.520;13.494;2023-09-30T15:41:44;2.57;;;0.87;;
9767;SDS011;4923;52.520;13.494;2023-09-30T15:44:31;1.03;;;0.77;;
9767;SDS011;4923;52.520;13.494;2023-09-30T15:47:18;3.13;;;0.80;;
9767;SDS011;4923;52.520;13.494;2023-09-30T15:50:06;1.90;;;1.10;;
9767;SDS011;4923;52.520;13.494;2023-09-30T15:52:53;5.67;;;0.93;;
9767;SDS011;4923;52.520;13.494;2023-09-30T15:55:40;10.17;;;1.40;;
9767;SDS011;4923;52.520;13.494;2023-09-30T15:58:29;3.80;;;1.23;;
9767;SDS011;4923;52.520;13.494;2023-09-30T16:01:15;21.33;;;2.80;;
9767;SDS011;4923;52.520;13.494;2023-09-30T16:04:02;5.53;;;1.30;;
9767;SDS011;4923;52.520;13.494;2023-09-30T16:06:50;8.00;;;1.30;;
9767;SDS011;4923;52.520;13.494;2023-09-30T16:09:36;4.67;;;1.47;;
9767;SDS011;4923;52.520;13.494;2023-09-30T16:12:23;5.40;;;1.17;;
9767;SDS011;4923;52.520;13.494;2023-09-30T16:15:11;7.73;;;1.43;;
9767;SDS011;4923;52.520;13.494;2023-09-30T16:17:59;4.90;;;1.37;;
9767;SDS011;4923;52.520;13.494;2023-09-30T16:20:46;8.20;;;1.50;;
9767;SDS011;4923;52.520;13.494;2023-09-30T16:23:33;5.97;;;1.77;;
9767;SDS011;4923;52.520;13.494;2023-09-30T16:26:19;5.93;;;1.30;;
9767;SDS011;4923;52.520;13.494;2023-09-30T16:29:06;2.83;;;1.70;;
9767;SDS011;4923;52.520;13.494;2023-09-30T16:31:54;3.70;;;1.40;;
9767;SDS011;4923;52.520;13.494;2023-09-30T16:34:41;2.80;;;1.90;;
9767;SDS011;4923;52.520;13.494;2023-09-30T16:37:28;4.63;;;1.30;;
9767;SDS011;4923;52.520;13.494;2023-09-30T16:40:15;6.50;;;2.20;;
9767;SDS011;4923;52.520;13.494;2023-09-30T16:43:02;7.67;;;1.77;;
9767;SDS011;4923;52.520;13.494;2023-09-30T16:45:49;7.90;;;2.13;;
9767;SDS011;4923;52.520;13.494;2023-09-30T16:48:37;2.70;;;1.10;;
9767;SDS011;4923;52.520;13.494;2023-09-30T16:51:25;5.50;;;1.30;;
9767;SDS011;4923;52.520;13.494;2023-09-30T16:54:12;3.20;;;1.40;;
9767;SDS011;4923;52.520;13.494;2023-09-30T16:56:59;8.43;;;1.50;;
9767;SDS011;4923;52.520;13.494;2023-09-30T16:59:45;4.37;;;1.13;;
9767;SDS011;4923;52.520;13.494;2023-09-30T17:02:32;3.90;;;1.63;;
9767;SDS011;4923;52.520;13.494;2023-09-30T17:05:21;2.80;;;1.03;;